Time;durP1;ratioP1;P1;durP2;ratioP2;P2;SDS_P1;SDS_P2;PMS_P1;PMS_P2;Temp;Humidity;BMP_temperature;BMP_pressure;BME280_temperature;BME280_humidity;BME280_pressure;Samples;Min_cycle;Max_cycle;Signal;HPM_P1;HPM_P2
2023/05/14 00:02:06;;;;;;;11.13;6.53;;;;;;;16.87;97.18;94235.41;5100060;28;20118;-77
2023/05/14 00:04:32;;;;;;;16.23;8.38;;;;;;;16.82;98.52;94228.41;5118586;28;20301;-77
2023/05/14 00:06:57;;;;;;;10.32;6.20;;;;;;;17.32;93.72;94229.03;5118013;28;20088;-77
2023/05/14 00:09:23;;;;;;;14.25;6.22;;;;;;;17.53;92.15;94229.16;5118352;28;20031;-78
2023/05/14 00:11:48;;;;;;;11.63;7.13;;;;;;;17.59;90.69;94226.38;5118069;28;20424;-78
2023/05/14 00:14:14;;;;;;;12.73;7.68;;;;;;;17.53;92.77;94228.41;5118221;28;20035;-77
2023/05/14 00:16:58;;;;;;;14.43;8.02;;;;;;;17.70;92.30;94226.81;5117868;28;20848;-78
2023/05/14 00:19:24;;;;;;;14.15;7.45;;;;;;;17.35;96.39;94222.34;5099666;28;20045;-77
2023/05/14 00:21:49;;;;;;;11.18;7.20;;;;;;;17.44;96.99;94227.63;5083017;28;20109;-77
2023/05/14 00:24:15;;;;;;;15.80;9.40;;;;;;;17.41;98.54;94231.69;5118206;28;20110;-77
2023/05/14 00:26:59;;;;;;;16.67;8.35;;;;;;;18.08;93.51;94223.44;5117618;28;20039;-77
2023/05/14 00:29:25;;;;;;;11.50;7.68;;;;;;;17.74;94.62;94223.22;5101802;28;20036;-77
2023/05/14 00:31:50;;;;;;;12.32;8.73;;;;;;;17.72;95.90;94227.28;5099950;28;20042;-77
2023/05/14 00:36:59;;;;;;;17.05;10.38;;;;;;;17.53;96.81;94215.94;5083467;28;20475;-77
2023/05/14 00:39:25;;;;;;;21.48;10.75;;;;;;;17.70;95.61;94216.22;5081785;28;20032;-77
2023/05/14 00:44:34;;;;;;;23.98;10.98;;;;;;;17.91;94.90;94213.66;5099320;28;20052;-77
2023/05/14 00:49:44;;;;;;;15.45;10.13;;;;;;;17.72;99.72;94209.50;5084148;28;20135;-77
2023/05/14 00:52:10;;;;;;;19.23;10.63;;;;;;;17.55;100.00;94206.88;5099348;28;20043;-77
2023/05/14 00:54:54;;;;;;;33.20;8.18;;;;;;;17.80;100.00;94210.59;5081410;28;20038;-77
2023/05/14 00:57:20;;;;;;;16.52;6.25;;;;;;;16.84;100.00;94200.84;5081301;28;20490;-77
2023/05/14 00:59:46;;;;;;;14.43;5.05;;;;;;;17.24;98.24;94201.47;5081421;28;20023;-77
2023/05/14 01:02:11;;;;;;;9.20;4.22;;;;;;;16.98;98.22;94198.03;5081403;28;20115;-77
2023/05/14 01:07:49;;;;;;;7.70;4.13;;;;;;;17.20;99.91;94199.78;5083471;28;20467;-77
2023/05/14 01:10:35;;;;;;;7.35;4.05;;;;;;;16.34;100.00;94197.50;5098641;28;20035;-77
2023/05/14 01:13:11;;;;;;;5.50;1.85;;;;;;;16.52;97.38;94191.19;5080591;28;20020;-77
2023/05/14 01:15:39;;;;;;;6.30;2.22;;;;;;;16.29;100.00;94187.88;5098422;28;20028;-77
2023/05/14 01:18:06;;;;;;;5.93;2.00;;;;;;;16.39;100.00;94190.22;5080100;28;20035;-77
2023/05/14 01:20:32;;;;;;;3.72;1.70;;;;;;;16.67;98.86;94187.28;5081176;28;20027;-77
2023/05/14 01:23:16;;;;;;;5.68;1.90;;;;;;;16.96;97.56;94185.91;5080661;28;20093;-78
2023/05/14 01:25:42;;;;;;;4.40;1.65;;;;;;;16.01;100.00;94174.91;5098601;28;20081;-77
2023/05/14 01:28:18;;;;;;;4.07;1.30;;;;;;;16.77;100.00;94180.16;5080699;28;20035;-77
2023/05/14 01:30:58;;;;;;;5.60;1.95;;;;;;;16.61;100.00;94177.97;5080570;28;20447;-77
2023/05/14 01:33:25;;;;;;;6.13;1.55;;;;;;;16.49;100.00;94178.56;5080730;28;20051;-78
2023/05/14 01:35:52;;;;;;;7.18;1.63;;;;;;;16.48;100.00;94165.66;5080238;28;20457;-77
2023/05/14 01:38:18;;;;;;;1.65;1.23;;;;;;;16.15;100.00;94171.34;5079801;28;20417;-77
2023/05/14 01:41:03;;;;;;;3.20;1.30;;;;;;;17.11;96.43;94181.25;5080235;28;20102;-78
2023/05/14 01:43:28;;;;;;;2.33;1.27;;;;;;;16.41;99.46;94166.13;5108852;28;20080;-77
2023/05/14 01:46:12;;;;;;;10.23;1.75;;;;;;;16.12;100.00;94167.47;5088529;28;20448;-77
2023/05/14 01:48:44;;;;;;;33.05;2.63;;;;;;;16.63;98.71;94162.56;5104331;28;20463;-78
2023/05/14 01:51:47;;;;;;;2.75;1.60;;;;;;;16.37;100.00;94159.91;5089574;28;20063;-77
2023/05/14 01:54:31;;;;;;;3.17;1.50;;;;;;;16.08;100.00;94156.72;5098106;28;20076;-77
2023/05/14 01:56:57;;;;;;;2.88;1.58;;;;;;;15.37;100.00;94153.00;5079132;28;20024;-77
2023/05/14 01:59:22;;;;;;;4.10;1.35;;;;;;;15.76;100.00;94152.53;5078909;28;20515;-77
2023/05/14 02:02:06;;;;;;;2.63;1.42;;;;;;;15.10;100.00;94148.63;5080166;28;20032;-78
2023/05/14 02:04:32;;;;;;;5.63;1.55;;;;;;;15.71;100.00;94147.41;5097950;28;20059;-78
2023/05/14 02:06:57;;;;;;;11.80;2.00;;;;;;;15.23;100.00;94152.28;5066276;28;20540;-77
2023/05/14 02:09:23;;;;;;;6.22;1.83;;;;;;;15.21;100.00;94143.91;5086954;28;20493;-77
2023/05/14 02:12:07;;;;;;;4.32;2.30;;;;;;;15.43;100.00;94142.31;5095348;28;20107;-78
2023/05/14 02:14:32;;;;;;;6.72;2.00;;;;;;;15.65;100.00;94141.47;5094842;28;20413;-78
2023/05/14 02:16:58;;;;;;;4.40;2.20;;;;;;;15.58;100.00;94141.13;5076322;28;20031;-78
2023/05/14 02:19:23;;;;;;;4.38;2.15;;;;;;;15.67;100.00;94139.28;5076820;28;20023;-77
2023/05/14 02:21:49;;;;;;;2.78;1.85;;;;;;;16.02;100.00;94138.66;5095472;28;20036;-78
2023/05/14 02:24:15;;;;;;;3.42;2.10;;;;;;;16.29;100.00;94134.22;5077286;28;20348;-78
2023/05/14 02:26:41;;;;;;;4.25;2.10;;;;;;;16.17;100.00;94135.59;5076901;28;20412;-78
2023/05/14 02:29:06;;;;;;;4.93;1.85;;;;;;;15.66;100.00;94125.31;5095345;28;20039;-77
2023/05/14 02:31:32;;;;;;;2.80;1.63;;;;;;;16.02;100.00;94133.38;5095292;28;20039;-77
2023/05/14 02:33:59;;;;;;;5.03;2.00;;;;;;;16.02;100.00;94128.88;5095298;28;20032;-78
2023/05/14 02:39:09;;;;;;;5.72;2.22;;;;;;;15.80;100.00;94122.56;5079658;28;20034;-77
2023/05/14 02:41:34;;;;;;;3.78;2.05;;;;;;;16.34;100.00;94126.13;5095171;28;20154;-77
2023/05/14 02:44:00;;;;;;;6.05;2.13;;;;;;;16.65;100.00;94123.34;5077132;28;20065;-78
2023/05/14 02:46:25;;;;;;;9.18;2.55;;;;;;;16.34;100.00;94118.19;5076625;28;20093;-78
2023/05/14 02:51:53;;;;;;;6.70;3.17;;;;;;;16.57;100.00;94112.78;5079404;28;20509;-77
2023/05/14 02:54:37;;;;;;;5.07;4.20;;;;;;;16.17;100.00;94103.13;5094769;28;20027;-77
2023/05/14 02:57:21;;;;;;;7.85;4.72;;;;;;;16.41;100.00;94107.94;5093945;28;20046;-77
2023/05/14 02:59:46;;;;;;;7.20;5.05;;;;;;;16.30;100.00;94096.91;5094451;28;20089;-77
2023/05/14 03:04:56;;;;;;;8.90;5.50;;;;;;;16.28;100.00;94095.66;5079332;28;20035;-77
2023/05/14 03:07:21;;;;;;;8.77;5.63;;;;;;;16.59;100.00;94092.09;5094500;28;20044;-77
2023/05/14 03:09:47;;;;;;;10.05;5.07;;;;;;;16.20;100.00;94090.03;5094598;28;20347;-78
2023/05/14 03:12:13;;;;;;;8.98;6.47;;;;;;;16.26;100.00;94090.66;5076629;28;20036;-77
2023/05/14 03:14:38;;;;;;;8.80;5.10;;;;;;;16.56;99.33;94092.72;5076520;28;20736;-77
2023/05/14 03:17:04;;;;;;;7.93;4.43;;;;;;;16.63;99.75;94093.78;5075864;28;20065;-77
2023/05/14 03:22:32;;;;;;;6.63;4.15;;;;;;;16.45;99.90;94093.00;5094490;28;20031;-77
2023/05/14 03:24:58;;;;;;;9.48;4.20;;;;;;;16.27;100.00;94094.09;5094383;28;20028;-77
2023/05/14 03:27:42;;;;;;;4.95;3.90;;;;;;;16.16;100.00;94083.06;5076895;28;20039;-77
2023/05/14 03:30:08;;;;;;;6.90;4.28;;;;;;;16.33;100.00;94080.44;5098218;28;20445;-77
2023/05/14 03:32:33;;;;;;;6.18;3.90;;;;;;;16.38;98.90;94093.47;5098460;28;20038;-77
2023/05/14 03:35:17;;;;;;;5.55;4.10;;;;;;;16.00;100.00;94083.50;5080279;28;20027;-77
2023/05/14 03:38:01;;;;;;;7.70;3.72;;;;;;;16.53;98.84;94084.31;5097495;28;20028;-77
2023/05/14 03:40:26;;;;;;;4.65;3.58;;;;;;;16.10;100.00;94077.13;5101261;28;20081;-77
2023/05/14 03:42:52;;;;;;;5.63;3.72;;;;;;;16.24;100.00;94075.13;5120735;28;20040;-77
2023/05/14 03:45:17;;;;;;;6.53;3.97;;;;;;;16.15;100.00;94063.00;5121179;28;20038;-77
2023/05/14 03:47:43;;;;;;;4.82;3.60;;;;;;;16.31;100.00;94064.09;5120524;28;20033;-77
2023/05/14 03:50:08;;;;;;;5.15;3.67;;;;;;;16.27;100.00;94062.38;5121213;28;20039;-77
2023/05/14 03:52:34;;;;;;;7.93;3.95;;;;;;;16.37;100.00;94059.44;5121129;28;20173;-77
2023/05/14 03:54:59;;;;;;;3.80;3.10;;;;;;;16.03;100.00;94056.47;5102996;28;20111;-77
2023/05/14 03:57:24;;;;;;;5.07;3.58;;;;;;;16.15;100.00;94063.00;5102240;28;20031;-78
2023/05/14 04:00:09;;;;;;;4.85;3.42;;;;;;;16.58;98.86;94058.78;5102536;28;20039;-78
2023/05/14 04:02:34;;;;;;;4.15;3.13;;;;;;;16.20;100.00;94058.31;5118542;28;20071;-77
2023/05/14 04:05:00;;;;;;;5.30;3.20;;;;;;;16.30;100.00;94056.47;5119051;28;20143;-77
2023/05/14 04:07:25;;;;;;;4.90;3.20;;;;;;;15.97;100.00;94061.13;5120320;28;20076;-77
2023/05/14 04:09:50;;;;;;;4.88;2.92;;;;;;;16.24;99.92;94059.28;5120852;28;20503;-77
2023/05/14 04:12:16;;;;;;;4.72;3.10;;;;;;;16.45;98.82;94058.66;5102062;28;20023;-78
2023/05/14 04:15:00;;;;;;;3.33;2.95;;;;;;;16.18;99.58;94057.84;5102302;28;20027;-77
2023/05/14 04:17:25;;;;;;;4.63;3.10;;;;;;;16.25;100.00;94060.81;5120232;28;20031;-77
2023/05/14 04:19:51;;;;;;;4.70;3.17;;;;;;;16.28;99.59;94056.78;5094005;28;20034;-77
2023/05/14 04:22:16;;;;;;;6.18;2.88;;;;;;;16.68;97.76;94061.13;5097810;28;20097;-77
2023/05/14 04:30:12;;;;;;;4.97;3.00;;;;;;;16.89;97.05;94063.09;5104534;28;20479;-77
2023/05/14 04:32:56;;;;;;;4.10;2.70;;;;;;;17.06;94.22;94063.09;5120322;28;20035;-77
2023/05/14 04:35:21;;;;;;;5.78;2.85;;;;;;;16.79;95.91;94062.38;5096330;28;20023;-77
2023/05/14 04:37:47;;;;;;;5.88;3.13;;;;;;;16.73;98.90;94060.19;5089932;28;20042;-77
2023/05/14 04:40:14;;;;;;;6.03;3.00;;;;;;;16.51;99.29;94060.06;5094365;28;20073;-78
2023/05/14 04:42:39;;;;;;;6.13;2.97;;;;;;;16.51;99.01;94056.63;5120146;28;20065;-77
2023/05/14 04:45:05;;;;;;;3.63;2.60;;;;;;;16.32;100.00;94059.56;5101623;28;20114;-77
2023/05/14 04:47:31;;;;;;;4.90;2.20;;;;;;;16.01;100.00;94057.84;5100726;28;20386;-77
2023/05/14 04:49:57;;;;;;;5.07;2.40;;;;;;;16.18;100.00;94060.50;5101106;28;20078;-77
2023/05/14 04:52:23;;;;;;;3.97;2.00;;;;;;;16.66;98.04;94066.72;5101525;28;20471;-77
2023/05/14 04:54:48;;;;;;;4.03;2.08;;;;;;;16.09;100.00;94059.72;5119492;28;20137;-77
2023/05/14 04:57:14;;;;;;;3.53;1.83;;;;;;;16.27;100.00;94054.44;5100309;28;20143;-77
2023/05/14 05:02:23;;;;;;;7.22;2.20;;;;;;;16.31;100.00;94065.94;5119419;28;20345;-77
2023/05/14 05:04:49;;;;;;;7.97;2.30;;;;;;;16.55;100.00;94065.47;5101028;28;20028;-77
2023/05/14 05:07:14;;;;;;;4.05;2.10;;;;;;;16.79;100.00;94069.50;5119235;28;20036;-77
2023/05/14 05:09:41;;;;;;;2.20;1.70;;;;;;;16.82;100.00;94063.59;5100835;28;20031;-77
2023/05/14 05:12:06;;;;;;;8.77;2.00;;;;;;;16.92;100.00;94067.75;5101124;28;20436;-77
2023/05/14 05:14:34;;;;;;;6.18;2.15;;;;;;;16.98;99.95;94061.22;5111226;28;20039;-77
2023/05/14 05:17:00;;;;;;;2.72;2.00;;;;;;;16.54;100.00;94075.28;5115273;28;20027;-77
2023/05/14 05:19:25;;;;;;;2.88;2.15;;;;;;;15.94;100.00;94067.03;5119217;28;20443;-77
2023/05/14 05:21:50;;;;;;;3.97;2.00;;;;;;;16.71;100.00;94078.22;5119092;28;20110;-77
2023/05/14 05:27:20;;;;;;;4.38;1.63;;;;;;;16.78;98.37;94079.31;5118783;28;20055;-77
2023/05/14 05:30:05;;;;;;;3.63;1.95;;;;;;;17.19;95.78;94081.75;5118918;28;20022;-77
2023/05/14 05:32:30;;;;;;;4.20;1.98;;;;;;;16.40;100.00;94082.59;5100233;28;20058;-77
2023/05/14 05:34:56;;;;;;;2.13;1.33;;;;;;;16.85;100.00;94086.75;5100376;28;20360;-77
2023/05/14 05:37:21;;;;;;;1.45;1.35;;;;;;;16.82;99.89;94084.75;5118315;28;20026;-77
2023/05/14 05:42:49;;;;;;;7.07;1.45;;;;;;;16.11;100.00;94079.47;5117789;28;20030;-77
2023/05/14 05:45:33;;;;;;;0.85;0.77;;;;;;;16.48;100.00;94083.69;5090510;28;20032;-77
2023/05/14 05:47:59;;;;;;;3.80;0.60;;;;;;;15.76;100.00;94081.22;5095075;28;20032;-77
2023/05/14 05:50:25;;;;;;;0.98;0.70;;;;;;;16.74;97.98;94083.66;5108453;28;20386;-78
2023/05/14 05:52:51;;;;;;;1.17;0.90;;;;;;;16.91;95.96;94077.59;5097147;28;20028;-78
2023/05/14 05:55:16;;;;;;;1.20;0.98;;;;;;;16.73;94.81;94073.41;5079668;28;20032;-78
2023/05/14 05:58:00;;;;;;;2.55;0.88;;;;;;;16.66;98.64;94077.31;5096854;28;20031;-78
2023/05/14 06:00:26;;;;;;;0.98;0.88;;;;;;;16.53;100.00;94078.25;5097055;28;20452;-78
2023/05/14 06:02:51;;;;;;;1.58;0.90;;;;;;;16.61;100.00;94074.81;5079791;28;20032;-78
2023/05/14 06:05:18;;;;;;;1.20;1.10;;;;;;;16.22;100.00;94069.38;5097751;28;20027;-78
2023/05/14 06:10:27;;;;;;;1.75;0.90;;;;;;;17.57;92.02;94062.44;5109355;28;20038;-78
2023/05/14 06:12:52;;;;;;;3.80;0.80;;;;;;;17.66;89.97;94054.47;5083086;28;20035;-78
2023/05/14 06:15:18;;;;;;;2.53;0.90;;;;;;;17.67;87.34;94059.44;5097599;28;20032;-79
2023/05/14 06:18:02;;;;;;;2.20;0.90;;;;;;;17.66;86.46;94054.47;5079494;28;20031;-78
2023/05/14 06:20:27;;;;;;;1.65;0.95;;;;;;;17.54;94.05;94063.09;5097561;28;20027;-78
2023/05/14 06:25:37;;;;;;;1.42;1.00;;;;;;;17.28;88.35;94066.63;5097620;28;20089;-78
2023/05/14 06:28:02;;;;;;;1.55;1.13;;;;;;;16.88;90.24;94070.28;5079524;28;20024;-78
2023/05/14 06:30:28;;;;;;;1.42;1.17;;;;;;;17.06;93.66;94071.03;5097423;28;20024;-78
2023/05/14 06:32:53;;;;;;;2.50;1.38;;;;;;;17.02;98.14;94066.72;5066507;28;20023;-78
2023/05/14 06:35:37;;;;;;;2.05;1.67;;;;;;;17.10;95.47;94068.53;5100967;28;20039;-78
2023/05/14 06:38:03;;;;;;;2.00;1.48;;;;;;;17.06;93.18;94073.69;5078906;28;20032;-78
2023/05/14 06:40:28;;;;;;;2.15;1.65;;;;;;;17.19;89.71;94063.22;5097160;28;20038;-78
2023/05/14 06:43:12;;;;;;;5.68;1.50;;;;;;;17.46;88.25;94064.69;5097442;28;20042;-78
2023/05/14 06:45:38;;;;;;;3.80;1.70;;;;;;;16.58;99.51;94064.88;5097091;28;20310;-78
2023/05/14 06:48:03;;;;;;;3.65;2.20;;;;;;;16.92;96.92;94065.13;5082923;28;20080;-78
2023/05/14 06:50:29;;;;;;;3.65;1.80;;;;;;;16.53;98.93;94063.16;5112641;28;20038;-78
2023/05/14 06:52:55;;;;;;;3.45;1.90;;;;;;;16.74;97.12;94067.03;5097019;28;20039;-78
2023/05/14 06:55:20;;;;;;;3.58;1.95;;;;;;;16.84;96.48;94061.41;5096888;28;20160;-78
2023/05/14 06:57:46;;;;;;;3.75;1.60;;;;;;;16.78;93.85;94066.06;5096713;28;20032;-78
2023/05/14 07:00:13;;;;;;;1.92;1.35;;;;;;;16.52;95.02;94058.97;5078997;28;20112;-78
2023/05/14 07:02:38;;;;;;;2.47;1.67;;;;;;;16.67;92.57;94054.28;5096715;28;20031;-78
2023/05/14 07:05:04;;;;;;;3.00;1.60;;;;;;;16.34;96.07;94055.53;5097265;28;20039;-78
2023/05/14 07:10:13;;;;;;;1.92;1.60;;;;;;;16.76;93.59;94057.69;5116946;28;20490;-78
2023/05/14 07:15:23;;;;;;;2.38;1.45;;;;;;;16.94;93.67;94057.66;5101599;28;20128;-78
2023/05/14 07:18:07;;;;;;;2.20;1.73;;;;;;;16.97;95.28;94057.03;5108184;28;20119;-77
2023/05/14 07:20:33;;;;;;;3.38;1.63;;;;;;;16.39;99.48;94055.38;5096510;28;20032;-78
2023/05/14 07:22:58;;;;;;;5.97;1.50;;;;;;;17.00;93.39;94051.13;5096722;28;20318;-78
2023/05/14 07:28:07;;;;;;;4.93;1.42;;;;;;;16.55;99.35;94054.91;5096766;28;20456;-78
2023/05/14 07:30:33;;;;;;;4.90;1.73;;;;;;;16.54;95.88;94056.78;5096693;28;20031;-79
2023/05/14 07:33:17;;;;;;;3.80;2.00;;;;;;;17.28;93.99;94058.69;5096963;28;20463;-79
2023/05/14 07:35:42;;;;;;;6.22;2.20;;;;;;;16.93;95.32;94048.94;5095985;28;20032;-78
2023/05/14 07:38:08;;;;;;;3.00;2.40;;;;;;;17.23;93.93;94048.28;5078591;28;20046;-78
2023/05/14 07:40:33;;;;;;;2.80;2.40;;;;;;;17.35;94.74;94042.31;5096734;28;20081;-78
2023/05/14 07:42:59;;;;;;;4.53;2.90;;;;;;;17.66;90.16;94041.22;5098054;28;20031;-83
2023/05/14 07:45:24;;;;;;;24.23;3.28;;;;;;;18.01;90.22;94037.59;5081231;28;20028;-78
2023/05/14 07:48:08;;;;;;;4.43;2.95;;;;;;;18.11;89.57;94039.09;5096683;28;20043;-78
2023/05/14 07:50:34;;;;;;;3.78;2.70;;;;;;;18.01;91.56;94026.97;5095783;28;20027;-78
2023/05/14 07:52:59;;;;;;;4.03;2.63;;;;;;;18.79;84.19;94032.78;5078530;28;20077;-78
2023/05/14 07:55:25;;;;;;;8.30;2.75;;;;;;;18.84;83.27;94029.13;5096886;28;20031;-78
2023/05/14 07:57:50;;;;;;;5.18;2.97;;;;;;;17.98;87.17;94027.63;5096275;28;20120;-78
2023/05/14 08:02:59;;;;;;;3.10;2.60;;;;;;;18.79;83.75;94025.59;5096061;28;20039;-78
2023/05/14 08:05:25;;;;;;;5.72;2.70;;;;;;;19.21;89.16;94031.88;5096243;28;20437;-78
2023/05/14 08:18:34;;;;;;;2.38;1.92;;;;;;;19.64;78.39;94024.50;5093909;27;20840;-83
2023/05/14 08:21:00;;;;;;;4.18;2.80;;;;;;;19.50;74.55;94019.50;5092470;28;20028;-83
2023/05/14 08:23:25;;;;;;;3.22;2.53;;;;;;;19.68;73.10;94013.97;5092675;28;20077;-83
2023/05/14 08:25:51;;;;;;;5.60;2.90;;;;;;;19.06;79.51;94012.06;5092779;28;20447;-83
2023/05/14 08:28:16;;;;;;;4.85;2.70;;;;;;;18.34;84.42;94016.47;5093230;28;20034;-83
2023/05/14 08:30:41;;;;;;;3.55;2.97;;;;;;;18.71;83.45;94012.38;5092206;28;20027;-83
2023/05/14 08:33:07;;;;;;;3.92;3.17;;;;;;;18.16;82.75;94023.03;5092607;28;20028;-82
2023/05/14 08:35:32;;;;;;;3.85;2.83;;;;;;;18.51;83.59;94018.22;5092497;28;20047;-82
2023/05/14 08:37:58;;;;;;;3.25;2.60;;;;;;;18.96;77.95;94017.75;5072765;28;20012;-82
2023/05/14 08:40:23;;;;;;;3.60;2.97;;;;;;;18.26;75.44;94019.19;5085074;28;20396;-88
2023/05/14 08:42:50;;;;;;;3.15;2.65;;;;;;;18.28;77.03;94027.59;5075746;28;20027;-82
2023/05/14 08:45:20;;;;;;;3.40;2.60;;;;;;;18.03;78.63;94022.16;5092270;28;20039;-83
2023/05/14 08:47:50;;;;;;;6.20;3.30;;;;;;;18.16;83.21;94023.03;5091465;28;20516;-82
2023/05/14 08:50:16;;;;;;;77.07;38.58;;;;;;;18.34;82.70;94021.00;5075487;28;20028;-82
2023/05/14 08:52:41;;;;;;;15.23;8.18;;;;;;;18.37;81.41;94015.06;5056402;28;20020;-83
2023/05/14 08:55:07;;;;;;;5.68;4.00;;;;;;;18.42;82.06;94017.50;5071641;28;20346;-82
2023/05/14 08:57:33;;;;;;;3.08;2.78;;;;;;;18.36;83.16;94018.78;5071598;28;20021;-82
2023/05/14 08:59:59;;;;;;;6.05;3.10;;;;;;;18.00;83.50;94012.19;5055125;28;20024;-82
2023/05/14 09:02:30;;;;;;;4.00;3.08;;;;;;;18.31;80.41;94006.53;5071829;28;20039;-82
2023/05/14 09:04:57;;;;;;;4.50;3.22;;;;;;;18.19;82.09;94001.91;5071633;28;20073;-83
2023/05/14 09:07:23;;;;;;;7.32;3.40;;;;;;;18.08;84.01;94009.50;5071073;28;20029;-82
2023/05/14 09:09:48;;;;;;;6.90;4.20;;;;;;;17.98;88.35;94006.44;5071522;28;20449;-82
2023/05/14 09:12:14;;;;;;;14.80;4.50;;;;;;;17.92;91.15;94005.84;5072790;28;20104;-83
2023/05/14 09:14:40;;;;;;;11.27;4.28;;;;;;;17.26;99.06;94002.63;5071514;28;20029;-83
2023/05/14 09:17:06;;;;;;;12.15;4.35;;;;;;;16.91;100.00;94002.72;5070840;28;20119;-83
2023/05/14 09:19:31;;;;;;;11.20;4.45;;;;;;;16.87;100.00;94004.44;5041776;28;20045;-83
2023/05/14 09:22:00;;;;;;;7.75;4.55;;;;;;;16.96;100.00;94005.19;5058199;28;20036;-83
2023/05/14 09:24:28;;;;;;;7.57;4.45;;;;;;;17.37;100.00;94009.13;5042080;28;20493;-83
2023/05/14 09:26:56;;;;;;;8.25;4.50;;;;;;;17.54;99.18;94012.78;5057819;28;20029;-83
2023/05/14 09:29:25;;;;;;;5.13;3.85;;;;;;;18.41;92.04;94013.28;5058054;28;20106;-83
2023/05/14 09:31:51;;;;;;;5.80;3.38;;;;;;;17.95;96.33;94007.84;5041458;28;20028;-83
2023/05/14 09:34:27;;;;;;;13.13;3.65;;;;;;;17.70;90.80;94014.88;5041560;28;20025;-83
2023/05/14 09:37:00;;;;;;;4.75;3.10;;;;;;;18.05;89.92;94020.75;5057385;28;20031;-83
2023/05/14 09:39:26;;;;;;;4.97;3.03;;;;;;;17.73;91.93;94024.81;5057919;28;20479;-83
2023/05/14 09:41:52;;;;;;;6.50;2.50;;;;;;;17.49;92.05;94021.66;5041084;28;20028;-83
2023/05/14 09:44:18;;;;;;;3.95;2.58;;;;;;;17.22;93.22;94028.94;5057718;28;20028;-83
2023/05/14 09:46:45;;;;;;;3.28;2.50;;;;;;;17.48;88.97;94014.03;5057192;28;20334;-83
2023/05/14 09:49:10;;;;;;;2.80;2.13;;;;;;;17.58;89.09;94023.50;5058895;28;20028;-83
2023/05/14 09:51:36;;;;;;;2.80;2.35;;;;;;;17.37;86.09;94014.41;5057661;28;20028;-83
2023/05/14 09:54:03;;;;;;;3.25;2.20;;;;;;;17.52;89.94;94021.03;5057570;28;20421;-82
2023/05/14 09:56:29;;;;;;;10.70;2.53;;;;;;;17.82;89.81;94022.91;5057388;28;20025;-83
2023/05/14 09:58:55;;;;;;;5.80;1.92;;;;;;;17.90;87.01;94022.06;5058184;28;20051;-82
2023/05/14 10:01:21;;;;;;;3.45;1.30;;;;;;;17.91;81.58;94020.97;5058665;28;20065;-83
2023/05/14 10:03:47;;;;;;;1.50;1.30;;;;;;;18.37;83.81;94007.09;5040863;28;20033;-82
2023/05/14 10:06:15;;;;;;;2.20;1.67;;;;;;;18.56;85.49;94009.25;5057361;28;20025;-82
2023/05/14 10:08:43;;;;;;;2.85;1.38;;;;;;;18.77;79.68;94001.25;5040505;28;20075;-83
2023/05/14 10:11:23;;;;;;;1.40;1.30;;;;;;;18.58;83.76;94009.72;5057549;28;20025;-83
2023/05/14 10:14:02;;;;;;;3.33;1.33;;;;;;;19.42;78.32;94007.13;5057287;28;20036;-83
2023/05/14 10:16:30;;;;;;;1.35;1.10;;;;;;;19.89;74.41;93997.88;5057145;28;20029;-83
2023/05/14 10:19:02;;;;;;;1.10;1.00;;;;;;;20.19;70.92;94002.94;5056685;28;20049;-83
2023/05/14 10:21:29;;;;;;;1.35;1.15;;;;;;;20.52;70.29;94003.81;5058260;28;20029;-83
2023/05/14 10:23:54;;;;;;;1.00;0.90;;;;;;;20.50;65.11;94009.47;5058200;28;20043;-83
2023/05/14 10:26:20;;;;;;;2.05;1.15;;;;;;;20.59;66.36;94009.31;5058012;28;20036;-83
2023/05/14 10:28:46;;;;;;;2.45;1.60;;;;;;;20.72;66.53;94010.81;5056518;28;20090;-83
2023/05/14 10:31:12;;;;;;;4.75;1.80;;;;;;;20.13;75.46;93998.94;5055877;28;20119;-83
2023/05/14 10:33:49;;;;;;;2.70;2.13;;;;;;;19.90;71.57;94002.84;5040420;28;20040;-83
2023/05/14 10:36:15;;;;;;;2.83;1.83;;;;;;;20.13;68.64;94004.28;5040390;28;20036;-83
2023/05/14 10:38:40;;;;;;;3.25;1.70;;;;;;;19.73;68.17;94005.75;5046353;28;20029;-83
2023/05/14 10:41:24;;;;;;;4.88;1.55;;;;;;;20.99;62.76;93997.81;5076648;28;20040;-83
2023/05/14 10:43:50;;;;;;;1.63;1.23;;;;;;;20.34;66.52;93996.13;5076627;28;20133;-84
2023/05/14 10:46:15;;;;;;;4.72;1.30;;;;;;;20.31;68.47;93992.25;5076477;28;20063;-83
2023/05/14 10:48:42;;;;;;;2.42;1.67;;;;;;;20.88;72.68;93999.44;5059698;28;20036;-83
2023/05/14 10:51:11;;;;;;;1.63;1.17;;;;;;;21.56;67.59;93986.19;5057003;28;20036;-84
2023/05/14 10:53:41;;;;;;;3.47;1.25;;;;;;;21.55;61.89;93990.75;5070216;28;20028;-83
2023/05/14 10:56:15;;;;;;;1.98;1.30;;;;;;;21.97;62.16;93985.97;5076391;28;20036;-83
2023/05/14 10:58:42;;;;;;;3.72;1.20;;;;;;;21.51;61.54;93989.88;5075938;28;20032;-83
2023/05/14 11:01:10;;;;;;;1.75;1.25;;;;;;;21.91;64.29;93980.13;5076296;28;20028;-83
2023/05/14 11:03:44;;;;;;;4.40;3.15;;;;;;;22.30;58.32;93982.03;5076241;28;20433;-83
2023/05/14 11:06:10;;;;;;;1.92;1.30;;;;;;;22.34;55.85;93982.13;5076193;28;20098;-83
2023/05/14 11:08:36;;;;;;;3.03;1.23;;;;;;;22.27;56.79;93980.84;5075696;28;20139;-83
2023/05/14 11:11:02;;;;;;;3.40;1.00;;;;;;;22.38;62.08;93981.06;5075215;28;20024;-83
2023/05/14 11:13:27;;;;;;;3.88;1.67;;;;;;;22.55;63.20;93984.47;5077197;28;20032;-83
2023/05/14 11:15:53;;;;;;;3.85;3.45;;;;;;;22.40;58.58;93980.69;5059544;28;20028;-83
2023/05/14 11:18:28;;;;;;;3.15;1.55;;;;;;;22.56;57.76;93973.41;5076614;28;20033;-83
2023/05/14 11:21:00;;;;;;;5.65;1.42;;;;;;;22.42;56.17;93976.56;5076002;28;20035;-83
2023/05/14 11:23:26;;;;;;;1.67;1.20;;;;;;;22.41;56.80;93979.56;5075856;28;20040;-83
2023/05/14 11:25:55;;;;;;;2.10;1.27;;;;;;;21.46;62.18;93977.63;5075796;28;20039;-83
2023/05/14 11:28:21;;;;;;;2.67;1.27;;;;;;;21.79;61.47;93980.25;5069843;28;20422;-83
2023/05/14 11:30:48;;;;;;;1.20;1.10;;;;;;;21.00;58.56;93972.75;5055978;28;20034;-83
2023/05/14 11:33:14;;;;;;;3.72;1.30;;;;;;;20.58;63.43;93978.50;5055792;28;20091;-83
2023/05/14 11:35:44;;;;;;;5.20;1.60;;;;;;;20.60;67.44;93978.94;5049198;28;20086;-83
2023/05/14 11:38:16;;;;;;;5.90;1.20;;;;;;;20.24;71.90;93970.78;5075401;28;20387;-83
2023/05/14 11:40:50;;;;;;;2.13;1.20;;;;;;;19.31;77.79;93969.59;5075349;28;20055;-83
2023/05/14 11:43:16;;;;;;;2.25;1.50;;;;;;;19.05;82.01;93968.81;5058665;28;20373;-83
2023/05/14 11:45:43;;;;;;;2.90;1.83;;;;;;;18.43;85.15;93966.00;5075692;28;20067;-83
2023/05/14 11:48:17;;;;;;;3.78;1.58;;;;;;;18.76;89.01;93959.88;5075139;28;20082;-83
2023/05/14 11:50:52;;;;;;;3.25;1.77;;;;;;;19.07;84.30;93950.66;5075776;28;20036;-83
2023/05/14 11:53:25;;;;;;;170.13;106.85;;;;;;;19.09;84.12;93949.56;5058938;28;20033;-83
2023/05/14 11:55:51;;;;;;;204.77;120.63;;;;;;;19.06;82.15;93941.16;5059345;28;20090;-83
2023/05/14 11:58:17;;;;;;;3.70;2.00;;;;;;;18.94;86.13;93949.09;5066991;28;20056;-83
2023/05/14 12:00:49;;;;;;;2.17;1.45;;;;;;;19.63;78.74;93951.19;5072023;28;20091;-83
2023/05/14 12:03:15;;;;;;;3.00;1.58;;;;;;;19.67;81.81;93949.41;5055458;28;20059;-83
2023/05/14 12:05:56;;;;;;;2.17;1.48;;;;;;;21.38;68.24;93945.84;5072272;28;20049;-83
2023/05/14 12:08:25;;;;;;;3.75;2.40;;;;;;;23.28;60.20;93949.84;5075224;28;20028;-83
2023/05/14 12:10:54;;;;;;;2.58;1.27;;;;;;;23.76;56.54;93951.25;5067267;28;20115;-83
2023/05/14 12:13:20;;;;;;;1.33;1.13;;;;;;;22.65;57.72;93940.38;5054431;28;20116;-84
2023/05/14 12:16:04;;;;;;;3.63;1.20;;;;;;;22.66;59.52;93949.94;5064910;28;20123;-83
2023/05/14 12:18:32;;;;;;;;;;;;;;;22.93;60.83;93950.00;5051290;28;20081;-83
2023/05/14 12:21:04;;;;;;;1.10;1.00;;;;;;;21.53;62.68;93946.91;5056848;28;19913;-83
2023/05/14 12:23:32;;;;;;;1.60;1.25;;;;;;;21.20;64.35;93951.50;5059779;28;20031;-83
2023/05/14 12:26:04;;;;;;;19.48;1.75;;;;;;;20.86;69.50;93951.84;5038381;28;20421;-83
2023/05/14 12:28:30;;;;;;;6.53;1.30;;;;;;;19.70;77.12;93953.28;5071250;28;20378;-82
2023/05/14 12:30:58;;;;;;;3.78;0.90;;;;;;;19.45;71.80;93948.00;5039361;28;20123;-83
2023/05/14 12:33:28;;;;;;;7.55;1.50;;;;;;;19.19;71.56;93955.22;5037663;28;20037;-83
2023/05/14 12:35:56;;;;;;;3.72;1.25;;;;;;;19.74;69.98;93956.81;5059843;28;20111;-83
2023/05/14 12:38:24;;;;;;;1.00;0.93;;;;;;;19.64;68.05;93953.50;5062658;28;20090;-83
2023/05/14 12:40:49;;;;;;;1.85;1.10;;;;;;;19.46;70.75;93950.34;5054447;28;20094;-83